Race Rocks, British Columbia

9:05 PM PST on December 03, 2016 (GMT -0800)
Metchosin | | Change Station

Elev 25 ft 48.37 °N, 123.53 °W | Updated 1 minute ago

Light Rain Showers
Light Showers Rain
42.3 °F
Feels Like 39 °F
N
5.0
Wind Variable Wind from West

Today
High -- | Low -- °F
--% Chance of Precip.
Yesterday
High -- | Low -- °F
Precip. -- in
Pressure 30.08 in
Visibility 10.0 miles
Clouds Few 700 ft
Mostly Cloudy 2200 ft
Overcast 4000 ft
Windchill 39 °F
Dew Point 41 °F
Humidity 96%
Rainfall 0.48 in
Snow Depth Not available.
7:47 AM 4:20 PM
Waxing Crescent, 19% visible
METAR CYWH 040400Z 25011KT 10SM -SHRA FEW007 BKN022TCU OVC040 07/04 A3007 RMK CF2TCU3SC3 SLP185
Pressure 30.08 in
Visibility 10.0 miles
Clouds Few 700 ft
Mostly Cloudy 2200 ft
Overcast 4000 ft
Windchill 39 °F
Dew Point 41 °F
Humidity 96%
Rainfall 0.48 in
Snow Depth Not available.
7:47 AM 4:20 PM
Waxing Crescent, 19% visible
METAR CYWH 040400Z 25011KT 10SM -SHRA FEW007 BKN022TCU OVC040 07/04 A3007 RMK CF2TCU3SC3 SLP185

10-Day Weather Forecast

Almanac

Astronomy

Dec. 03, 2016 Rise Set
Actual Time
Civil Twilight
Nautical Twilight
Astronomical Twilight
Moon
Length of Visible Light
Length of Day
Tomorrow will be .
, % of the Moon is Illuminated

Today's Extremes

Country Highs Country Lows

Community

WunderPhotos

Upload Photos

1,955,584 photos uploaded!

WunderBlog® & News

Nearby

Air Quality

  Air Quality AQ Index Pollutant
Not available.

Snow Depth

Station Depth Elevation

Earthquake Activity

City Distance Mag. Time & Date
Minimum magnitude displayed is 2.5.

Coastal Water Temperatures

Place Temperature

Stations

Nearby Weather Stations

Station Location Temp. Windchill Dew Point Humidity Wind Precip. Elev Updated Type
                   

Watches & Warnings

There are currently no watches in effect.